createdAt,value
2022-12-12T00:01:26.246Z,-3.30
2022-12-12T00:03:55.074Z,-3.30
2022-12-12T00:06:25.875Z,-3.40
2022-12-12T00:08:54.377Z,-3.40
2022-12-12T00:11:23.509Z,-3.40
2022-12-12T00:13:52.761Z,-3.30
2022-12-12T00:16:21.269Z,-3.40
2022-12-12T00:18:49.937Z,-3.40
2022-12-12T00:21:20.364Z,-3.40
2022-12-12T00:23:50.069Z,-3.40
2022-12-12T00:26:21.102Z,-3.40
2022-12-12T00:28:49.669Z,-3.40
2022-12-12T00:31:18.839Z,-3.40
2022-12-12T00:33:50.059Z,-3.40
2022-12-12T00:36:20.674Z,-3.40
2022-12-12T00:38:50.654Z,-3.50
2022-12-12T00:41:19.735Z,-3.50
2022-12-12T00:43:48.604Z,-3.50
2022-12-12T00:46:18.356Z,-3.40
2022-12-12T00:48:46.713Z,-3.50
2022-12-12T00:51:18.733Z,-3.60
2022-12-12T00:53:51.495Z,-3.50
2022-12-12T00:56:22.739Z,-3.60
2022-12-12T00:58:51.667Z,-3.60
2022-12-12T01:01:22.436Z,-3.60
2022-12-12T01:03:50.882Z,-3.60
2022-12-12T01:06:19.528Z,-3.60
2022-12-12T01:08:47.892Z,-3.60
2022-12-12T01:11:17.594Z,-3.70
2022-12-12T01:13:48.628Z,-3.70
2022-12-12T01:16:16.806Z,-3.70
2022-12-12T01:18:45.141Z,-3.70
2022-12-12T01:21:15.000Z,-3.70
2022-12-12T01:23:43.247Z,-3.70
2022-12-12T01:26:14.399Z,-3.70
2022-12-12T01:28:43.234Z,-3.70
2022-12-12T01:31:13.436Z,-3.70
2022-12-12T01:33:45.920Z,-3.80
2022-12-12T01:36:16.749Z,-3.70
2022-12-12T01:38:46.074Z,-3.80
2022-12-12T01:41:15.724Z,-3.90
2022-12-12T01:43:43.987Z,-3.80
2022-12-12T01:46:34.638Z,-3.80
2022-12-12T01:49:07.874Z,-3.80
2022-12-12T01:51:36.874Z,-3.80
2022-12-12T01:54:09.827Z,-3.80
2022-12-12T01:56:39.159Z,-3.90
2022-12-12T01:59:09.823Z,-3.90
2022-12-12T02:01:40.269Z,-3.90
2022-12-12T02:04:10.439Z,-3.90
2022-12-12T02:06:39.384Z,-3.90
2022-12-12T02:09:13.015Z,-3.90
2022-12-12T02:11:46.278Z,-3.80
2022-12-12T02:14:17.715Z,-3.80
2022-12-12T02:17:20.068Z,-3.80
2022-12-12T02:20:19.643Z,-3.80
2022-12-12T02:23:28.080Z,-3.90
2022-12-12T02:26:17.877Z,-3.90
2022-12-12T02:29:25.899Z,-3.90
2022-12-12T02:32:00.447Z,-3.90
2022-12-12T02:34:37.505Z,-4.00
2022-12-12T02:37:12.342Z,-4.00
2022-12-12T02:39:48.515Z,-4.00
2022-12-12T02:42:27.166Z,-4.00
2022-12-12T02:45:01.400Z,-4.00
2022-12-12T02:47:33.349Z,-4.00
2022-12-12T02:50:07.369Z,-4.00
2022-12-12T02:52:35.881Z,-4.10
2022-12-12T02:55:04.469Z,-4.00
2022-12-12T02:57:33.303Z,-4.10
2022-12-12T03:00:05.400Z,-4.00
2022-12-12T03:03:16.514Z,-4.00
2022-12-12T03:06:10.145Z,-4.00
2022-12-12T03:08:52.643Z,-4.00
2022-12-12T03:11:31.931Z,-4.00
2022-12-12T03:14:04.445Z,-4.00
2022-12-12T03:16:40.471Z,-4.00
2022-12-12T03:19:16.656Z,-4.00
2022-12-12T03:21:50.223Z,-4.00
2022-12-12T03:24:24.402Z,-4.00
2022-12-12T03:27:00.457Z,-4.00
2022-12-12T03:29:32.341Z,-4.00
2022-12-12T03:32:06.414Z,-4.00
2022-12-12T03:34:39.497Z,-4.00
2022-12-12T03:37:13.281Z,-4.10
2022-12-12T03:39:47.270Z,-4.10
2022-12-12T03:42:20.830Z,-4.10
2022-12-12T03:44:54.003Z,-4.10
2022-12-12T03:47:27.514Z,-4.10
2022-12-12T03:50:03.602Z,-4.10
2022-12-12T03:52:34.681Z,-4.10
2022-12-12T03:55:09.303Z,-4.10
2022-12-12T03:57:42.968Z,-4.10
2022-12-12T04:00:15.367Z,-4.10
2022-12-12T04:02:51.767Z,-4.10
2022-12-12T04:05:25.207Z,-4.20
2022-12-12T04:08:00.000Z,-4.20
2022-12-12T04:10:51.356Z,-4.20
2022-12-12T04:13:32.466Z,-4.20
2022-12-12T04:16:05.678Z,-4.10
2022-12-12T04:18:41.258Z,-4.20
2022-12-12T04:21:38.469Z,-4.20
2022-12-12T04:24:16.661Z,-4.20
2022-12-12T04:26:50.561Z,-4.30
2022-12-12T04:29:28.772Z,-4.30
2022-12-12T04:32:04.717Z,-4.40
2022-12-12T04:34:42.478Z,-4.30
2022-12-12T04:37:16.761Z,-4.30
2022-12-12T04:39:48.930Z,-4.40
2022-12-12T04:42:22.319Z,-4.40
2022-12-12T04:44:53.714Z,-4.40
2022-12-12T04:47:22.754Z,-4.40
2022-12-12T04:49:53.433Z,-4.40
2022-12-12T04:52:25.352Z,-4.40
2022-12-12T04:55:00.260Z,-4.40
2022-12-12T04:57:32.974Z,-4.40
2022-12-12T05:00:01.711Z,-4.40
2022-12-12T05:02:35.890Z,-4.40
2022-12-12T05:05:09.024Z,-4.40
2022-12-12T05:07:41.447Z,-4.40
2022-12-12T05:10:14.524Z,-4.40
2022-12-12T05:12:45.360Z,-4.40
2022-12-12T05:15:14.802Z,-4.40
2022-12-12T05:17:46.230Z,-4.40
2022-12-12T05:20:14.741Z,-4.40
2022-12-12T05:22:44.187Z,-4.30
2022-12-12T05:25:14.192Z,-4.30
2022-12-12T05:27:42.638Z,-4.40
2022-12-12T05:30:11.962Z,-4.40
2022-12-12T05:32:40.605Z,-4.30
2022-12-12T05:35:10.453Z,-4.30
2022-12-12T05:37:38.678Z,-4.30
2022-12-12T05:40:10.675Z,-4.30
2022-12-12T05:42:38.920Z,-4.30
2022-12-12T05:45:10.306Z,-4.30
2022-12-12T05:47:38.700Z,-4.30
2022-12-12T05:50:08.284Z,-4.30
2022-12-12T05:52:36.616Z,-4.20
2022-12-12T05:55:05.217Z,-4.30
2022-12-12T05:57:35.240Z,-4.20
2022-12-12T06:00:04.971Z,-4.20
2022-12-12T06:02:33.222Z,-4.30
2022-12-12T06:05:01.420Z,-4.20
2022-12-12T06:07:29.531Z,-4.20
2022-12-12T06:10:00.827Z,-4.20
2022-12-12T06:12:28.881Z,-4.00
2022-12-12T06:14:58.370Z,-4.20
2022-12-12T06:17:31.341Z,-4.20
2022-12-12T06:20:01.932Z,-4.20
2022-12-12T06:22:30.166Z,-4.10
2022-12-12T06:24:58.230Z,-4.10
2022-12-12T06:27:26.362Z,-4.20
2022-12-12T06:29:54.508Z,-4.10
2022-12-12T06:32:24.383Z,-4.10
2022-12-12T06:34:52.688Z,-4.00
2022-12-12T06:37:20.772Z,-4.20
2022-12-12T06:39:49.174Z,-4.10
2022-12-12T06:42:17.438Z,-4.20
2022-12-12T06:44:47.498Z,-4.20
2022-12-12T06:47:15.667Z,-4.20
2022-12-12T06:49:45.233Z,-4.20
2022-12-12T06:52:13.742Z,-4.10
2022-12-12T06:54:41.885Z,-4.20
2022-12-12T06:57:12.926Z,-4.20
2022-12-12T06:59:41.326Z,-4.20
2022-12-12T07:02:12.143Z,-4.20
2022-12-12T07:04:40.225Z,-4.10
2022-12-12T07:07:09.754Z,-4.20
2022-12-12T07:09:38.249Z,-4.20
2022-12-12T07:12:06.687Z,-4.30
2022-12-12T07:14:34.840Z,-4.30
2022-12-12T07:17:02.969Z,-4.30
2022-12-12T07:19:31.033Z,-4.40
2022-12-12T07:22:04.189Z,-4.30
2022-12-12T07:24:37.350Z,-4.40
2022-12-12T07:27:07.112Z,-4.50
2022-12-12T07:29:35.592Z,-4.60
2022-12-12T07:32:04.250Z,-4.60
2022-12-12T07:34:32.532Z,-4.50
2022-12-12T07:37:03.077Z,-4.50
2022-12-12T07:39:31.674Z,-4.60
2022-12-12T07:42:01.643Z,-4.60
2022-12-12T07:44:30.163Z,-4.60
2022-12-12T07:46:59.068Z,-4.60
2022-12-12T07:49:27.355Z,-4.70
2022-12-12T07:51:55.613Z,-4.60
2022-12-12T07:54:23.806Z,-4.60
2022-12-12T07:56:52.978Z,-4.50
2022-12-12T07:59:22.697Z,-4.50
2022-12-12T08:01:51.035Z,-4.20
2022-12-12T08:04:22.330Z,-4.00
2022-12-12T08:06:55.661Z,-3.70
2022-12-12T08:09:31.640Z,-3.30
2022-12-12T08:12:00.901Z,-3.10
2022-12-12T08:14:30.840Z,-2.80
2022-12-12T08:16:59.186Z,-2.50
2022-12-12T08:19:27.477Z,-2.30
2022-12-12T08:21:58.709Z,-1.70
2022-12-12T08:24:28.498Z,-1.10
2022-12-12T08:26:56.866Z,-0.80
2022-12-12T08:29:25.380Z,-1.10
2022-12-12T08:31:55.118Z,-1.10
2022-12-12T08:34:23.932Z,-1.20
2022-12-12T08:36:52.553Z,-1.50
2022-12-12T08:39:20.967Z,-1.60
2022-12-12T08:41:51.407Z,-1.60
2022-12-12T08:44:22.196Z,-1.40
2022-12-12T08:46:51.406Z,-1.50
2022-12-12T08:49:21.329Z,-1.40
2022-12-12T08:51:51.424Z,-1.30
2022-12-12T08:54:19.818Z,-1.30
2022-12-12T08:56:48.571Z,-1.40
2022-12-12T08:59:17.032Z,-1.60
2022-12-12T09:01:45.304Z,-1.80
2022-12-12T09:04:13.610Z,-2.10
2022-12-12T09:06:43.291Z,-2.20
2022-12-12T09:09:11.464Z,-2.60
2022-12-12T09:11:40.100Z,-2.70
2022-12-12T09:14:08.309Z,-2.70
2022-12-12T09:16:36.632Z,-2.60
2022-12-12T09:19:05.028Z,-2.50
2022-12-12T09:21:33.383Z,-2.50
2022-12-12T09:24:03.535Z,-2.40
2022-12-12T09:26:32.256Z,-2.30
2022-12-12T09:29:00.486Z,-2.20
2022-12-12T09:31:28.689Z,-2.20
2022-12-12T09:33:57.115Z,-2.30
2022-12-12T09:36:26.086Z,-2.30
2022-12-12T09:38:54.307Z,-2.20
2022-12-12T09:41:27.108Z,-2.00
2022-12-12T09:43:59.240Z,-1.90
2022-12-12T09:46:36.314Z,-1.80
2022-12-12T09:49:18.285Z,-1.90
2022-12-12T09:51:52.189Z,-2.10
2022-12-12T09:54:22.753Z,-2.10
2022-12-12T09:57:06.198Z,-2.20
2022-12-12T09:59:41.851Z,-2.10
2022-12-12T10:02:31.047Z,-2.00
2022-12-12T10:05:03.187Z,-1.90
2022-12-12T10:07:42.678Z,-1.70
2022-12-12T10:10:18.537Z,-1.30
2022-12-12T10:12:49.007Z,-1.40
2022-12-12T10:15:28.335Z,-1.60
2022-12-12T10:18:05.731Z,-1.10
2022-12-12T10:20:38.183Z,-1.10
2022-12-12T10:23:15.986Z,-0.50
2022-12-12T10:25:50.768Z,-0.40
2022-12-12T10:28:22.789Z,-0.10
2022-12-12T10:31:06.924Z,0.50
2022-12-12T10:33:47.495Z,0.60
2022-12-12T10:36:26.892Z,1.10
2022-12-12T10:39:09.655Z,1.60
2022-12-12T10:41:45.415Z,1.30
2022-12-12T10:44:26.801Z,1.10
2022-12-12T10:47:01.745Z,1.30
2022-12-12T10:49:35.197Z,1.50
2022-12-12T10:52:07.201Z,1.80
2022-12-12T10:54:50.061Z,2.00
2022-12-12T10:57:22.395Z,2.50
2022-12-12T10:59:57.587Z,2.90
2022-12-12T11:02:36.039Z,3.10
2022-12-12T11:05:11.084Z,3.70
2022-12-12T11:07:41.718Z,4.00
2022-12-12T11:10:26.753Z,4.00
2022-12-12T11:12:59.777Z,3.70
2022-12-12T11:15:35.055Z,3.10
2022-12-12T11:18:06.322Z,2.80
2022-12-12T11:20:34.940Z,2.70
2022-12-12T11:23:03.292Z,2.10
2022-12-12T11:25:32.842Z,1.60
2022-12-12T11:28:06.856Z,1.20
2022-12-12T11:30:42.713Z,0.70
2022-12-12T11:33:19.899Z,0.40
2022-12-12T11:35:53.447Z,0.50
2022-12-12T11:38:25.698Z,0.30
2022-12-12T11:41:02.244Z,0.00
2022-12-12T11:43:31.801Z,0.10
2022-12-12T11:46:08.720Z,0.20
2022-12-12T11:48:56.823Z,0.30
2022-12-12T11:51:36.857Z,0.30
2022-12-12T11:54:11.518Z,0.40
2022-12-12T11:56:48.500Z,0.30
2022-12-12T11:59:43.174Z,0.30
2022-12-12T12:02:45.524Z,0.40
2022-12-12T12:05:25.661Z,0.40
2022-12-12T12:08:08.439Z,0.10
2022-12-12T12:10:47.479Z,-0.10
2022-12-12T12:13:33.834Z,-0.40
2022-12-12T12:16:10.965Z,-0.40
2022-12-12T12:18:55.591Z,-0.60
2022-12-12T12:21:35.399Z,-0.40
2022-12-12T12:24:38.405Z,0.00
2022-12-12T12:27:14.627Z,0.00
2022-12-12T12:30:01.195Z,0.00
2022-12-12T12:32:44.607Z,-0.20
2022-12-12T12:35:29.505Z,-0.40
2022-12-12T12:38:14.027Z,-0.40
2022-12-12T12:41:10.280Z,-0.40
2022-12-12T12:43:52.075Z,-0.50
2022-12-12T12:46:31.216Z,-0.40
2022-12-12T12:49:04.344Z,-0.40
2022-12-12T12:51:37.890Z,-0.40
2022-12-12T12:54:08.664Z,-0.70
2022-12-12T12:56:44.004Z,-0.60
2022-12-12T12:59:17.553Z,-0.80
2022-12-12T13:01:48.424Z,-0.80
2022-12-12T13:04:22.443Z,-0.90
2022-12-12T13:06:58.715Z,-0.70
2022-12-12T13:09:35.618Z,-0.70
2022-12-12T13:12:22.344Z,-0.80
2022-12-12T13:14:55.795Z,-1.00
2022-12-12T13:17:30.223Z,-0.80
2022-12-12T13:19:59.462Z,-0.90
2022-12-12T13:22:36.707Z,-0.90
2022-12-12T13:25:12.865Z,-0.90
2022-12-12T13:27:46.385Z,-0.90
2022-12-12T13:30:23.622Z,-0.80
2022-12-12T13:33:18.809Z,-0.90
2022-12-12T13:35:51.212Z,-0.90
2022-12-12T13:38:25.565Z,-1.00
2022-12-12T13:40:58.782Z,-0.80
2022-12-12T13:43:31.829Z,-0.50
2022-12-12T13:46:00.316Z,-0.50
2022-12-12T13:48:46.793Z,-0.40
2022-12-12T13:51:47.623Z,-0.30
2022-12-12T13:54:49.401Z,-0.40
2022-12-12T13:57:25.365Z,-0.30
2022-12-12T14:00:21.592Z,-0.40
2022-12-12T14:03:05.951Z,-0.40
2022-12-12T14:05:39.913Z,-0.50
2022-12-12T14:08:21.555Z,-0.60
2022-12-12T14:10:58.944Z,-0.80
2022-12-12T14:13:37.009Z,-0.90
2022-12-12T14:16:08.728Z,-0.90
2022-12-12T14:18:40.547Z,-0.90
2022-12-12T14:21:13.903Z,-1.00
2022-12-12T14:23:44.927Z,-1.00
2022-12-12T14:26:52.660Z,-1.00
2022-12-12T14:29:31.414Z,-1.00
2022-12-12T14:32:18.501Z,-1.20
2022-12-12T14:34:55.544Z,-1.20
2022-12-12T14:37:39.786Z,-1.30
2022-12-12T14:40:19.887Z,-1.40
2022-12-12T14:43:18.964Z,-1.50
2022-12-12T14:46:00.926Z,-1.60
2022-12-12T14:51:28.969Z,-2.00
2022-12-12T14:54:00.796Z,-2.10
2022-12-12T14:56:32.343Z,-2.20
2022-12-12T14:59:04.272Z,-2.20
2022-12-12T15:01:35.383Z,-2.40
2022-12-12T15:04:07.692Z,-2.50
2022-12-12T15:06:40.902Z,-2.50
2022-12-12T15:09:25.339Z,-2.70
2022-12-12T15:11:56.082Z,-2.80
2022-12-12T15:15:06.473Z,-2.80
2022-12-12T15:17:39.876Z,-2.90
2022-12-12T15:20:15.793Z,-3.00
2022-12-12T15:22:54.160Z,-3.10
2022-12-12T15:25:25.752Z,-3.20
2022-12-12T15:27:56.478Z,-3.20
2022-12-12T15:30:53.827Z,-3.30
2022-12-12T15:33:26.794Z,-3.40
2022-12-12T15:36:01.879Z,-3.40
2022-12-12T15:38:33.372Z,-3.40
2022-12-12T15:41:12.804Z,-3.50
2022-12-12T15:43:43.378Z,-3.50
2022-12-12T15:46:16.384Z,-3.50
2022-12-12T15:48:45.640Z,-3.60
2022-12-12T15:51:19.730Z,-3.60
2022-12-12T15:53:55.387Z,-3.70
2022-12-12T15:56:26.278Z,-3.70
2022-12-12T15:58:58.648Z,-3.70
2022-12-12T16:01:31.344Z,-3.80
2022-12-12T16:04:01.297Z,-3.80
2022-12-12T16:09:25.649Z,-3.90
2022-12-12T16:11:55.211Z,-4.00
2022-12-12T16:14:40.202Z,-4.10
2022-12-12T16:17:15.244Z,-4.20
2022-12-12T16:19:51.619Z,-4.30
2022-12-12T16:22:33.925Z,-4.40
2022-12-12T16:25:16.869Z,-4.40
2022-12-12T16:27:48.758Z,-4.50
2022-12-12T16:30:18.069Z,-4.50
2022-12-12T16:32:50.698Z,-4.60
2022-12-12T16:35:22.215Z,-4.70
2022-12-12T16:37:54.592Z,-4.70
2022-12-12T16:40:23.796Z,-4.70
2022-12-12T16:43:10.829Z,-4.80
2022-12-12T16:45:39.854Z,-4.80
2022-12-12T16:48:16.051Z,-4.90
2022-12-12T16:50:47.703Z,-4.80
2022-12-12T16:53:16.564Z,-5.00
2022-12-12T16:55:47.339Z,-5.00
2022-12-12T16:58:16.765Z,-5.00
2022-12-12T17:00:49.273Z,-5.00
2022-12-12T17:03:19.404Z,-5.10
2022-12-12T17:06:18.332Z,-5.20
2022-12-12T17:08:48.096Z,-5.20
2022-12-12T17:11:16.763Z,-5.20
2022-12-12T17:13:49.345Z,-5.30
2022-12-12T17:16:22.745Z,-5.40
2022-12-12T17:18:56.724Z,-5.40
2022-12-12T17:21:25.711Z,-5.40
2022-12-12T17:23:54.499Z,-5.50
2022-12-12T17:26:23.770Z,-5.50
2022-12-12T17:28:52.306Z,-5.50
2022-12-12T17:31:21.016Z,-5.50
2022-12-12T17:33:51.450Z,-5.50
2022-12-12T17:36:21.725Z,-5.50
2022-12-12T17:39:00.861Z,-5.50
2022-12-12T17:41:30.444Z,-5.60
2022-12-12T17:43:59.673Z,-5.70
2022-12-12T17:46:28.909Z,-5.70
2022-12-12T17:49:02.160Z,-5.80
2022-12-12T17:51:32.694Z,-5.80
2022-12-12T17:54:01.420Z,-5.80
2022-12-12T17:56:30.628Z,-5.80
2022-12-12T17:58:59.544Z,-5.90
2022-12-12T18:01:31.770Z,-5.90
2022-12-12T18:04:03.407Z,-5.90
2022-12-12T18:06:38.261Z,-6.00
2022-12-12T18:09:09.170Z,-6.10
2022-12-12T18:11:38.742Z,-6.10
2022-12-12T18:14:09.116Z,-6.10
2022-12-12T18:16:37.699Z,-6.10
2022-12-12T18:19:06.248Z,-6.10
2022-12-12T18:21:59.582Z,-6.20
2022-12-12T18:24:34.354Z,-6.20
2022-12-12T18:27:04.081Z,-6.30
2022-12-12T18:29:32.906Z,-6.50
2022-12-12T18:32:01.288Z,-6.60
2022-12-12T18:34:29.513Z,-6.60
2022-12-12T18:37:02.331Z,-6.70
2022-12-12T18:39:30.491Z,-6.70
2022-12-12T18:41:58.975Z,-6.70
2022-12-12T18:44:27.092Z,-6.70
2022-12-12T18:46:55.744Z,-6.80
2022-12-12T18:49:24.476Z,-6.70
2022-12-12T18:51:53.621Z,-6.80
2022-12-12T18:54:23.343Z,-6.90
2022-12-12T18:56:51.906Z,-6.90
2022-12-12T18:59:19.969Z,-7.00
2022-12-12T19:01:53.500Z,-7.10
2022-12-12T19:04:23.652Z,-7.10
2022-12-12T19:06:52.169Z,-7.10
2022-12-12T19:09:22.194Z,-7.20
2022-12-12T19:11:50.649Z,-7.20
2022-12-12T19:14:19.239Z,-7.20
2022-12-12T19:16:48.050Z,-7.20
2022-12-12T19:19:16.800Z,-7.30
2022-12-12T19:21:46.419Z,-7.30
2022-12-12T19:24:14.837Z,-7.40
2022-12-12T19:26:46.608Z,-7.40
2022-12-12T19:29:17.585Z,-7.40
2022-12-12T19:32:12.620Z,-7.10
2022-12-12T19:34:47.486Z,-7.50
2022-12-12T19:37:22.850Z,-7.60
2022-12-12T19:39:53.623Z,-7.70
2022-12-12T19:42:24.517Z,-7.70
2022-12-12T19:44:56.203Z,-7.70
2022-12-12T19:47:29.159Z,-7.70
2022-12-12T19:49:57.361Z,-7.70
2022-12-12T19:52:25.483Z,-7.70
2022-12-12T19:54:54.247Z,-7.70
2022-12-12T19:57:26.400Z,-7.70
2022-12-12T19:59:54.741Z,-7.70
2022-12-12T20:02:23.014Z,-7.70
2022-12-12T20:04:51.433Z,-7.90
2022-12-12T20:07:19.576Z,-7.90
2022-12-12T20:09:50.643Z,-7.90
2022-12-12T20:12:18.769Z,-7.90
2022-12-12T20:14:48.559Z,-7.90
2022-12-12T20:17:16.970Z,-7.90
2022-12-12T20:19:47.311Z,-8.00
2022-12-12T20:22:16.291Z,-8.00
2022-12-12T20:24:45.229Z,-8.00
2022-12-12T20:27:15.315Z,-8.00
2022-12-12T20:29:44.441Z,-8.00
2022-12-12T20:32:14.607Z,-8.00
2022-12-12T20:34:43.190Z,-8.00
2022-12-12T20:37:14.133Z,-8.00
2022-12-12T20:39:46.470Z,-8.00
2022-12-12T20:42:14.531Z,-8.00
2022-12-12T20:44:42.582Z,-8.00
2022-12-12T20:47:14.508Z,-8.00
2022-12-12T20:49:44.471Z,-8.00
2022-12-12T20:52:12.614Z,-7.90
2022-12-12T20:54:40.723Z,-7.90
2022-12-12T20:57:08.787Z,-7.90
2022-12-12T20:59:37.713Z,-7.70
2022-12-12T21:02:06.561Z,-7.90
2022-12-12T21:04:35.937Z,-8.00
2022-12-12T21:07:06.068Z,-8.00
2022-12-12T21:09:34.229Z,-8.00
2022-12-12T21:12:02.814Z,-8.00
2022-12-12T21:14:33.044Z,-8.00
2022-12-12T21:17:01.108Z,-8.00
2022-12-12T21:19:29.217Z,-8.00
2022-12-12T21:21:57.294Z,-7.70
2022-12-12T21:24:28.126Z,-8.00
2022-12-12T21:26:56.393Z,-8.00
2022-12-12T21:29:24.446Z,-8.10
2022-12-12T21:31:52.961Z,-8.10
2022-12-12T21:34:22.635Z,-8.10
2022-12-12T21:36:55.554Z,-8.20
2022-12-12T21:39:29.489Z,-8.10
2022-12-12T21:41:59.047Z,-8.20
2022-12-12T21:44:27.464Z,-8.20
2022-12-12T21:46:55.597Z,-8.20
2022-12-12T21:49:30.839Z,-8.20
2022-12-12T21:52:01.356Z,-8.30
2022-12-12T21:54:30.477Z,-8.30
2022-12-12T21:57:01.995Z,-8.30
2022-12-12T21:59:30.990Z,-8.30
2022-12-12T22:02:01.159Z,-8.30
2022-12-12T22:04:30.438Z,-8.30
2022-12-12T22:06:58.710Z,-8.50
2022-12-12T22:09:27.975Z,-8.50
2022-12-12T22:12:03.333Z,-8.50
2022-12-12T22:14:34.913Z,-8.50
2022-12-12T22:17:03.630Z,-8.60
2022-12-12T22:19:34.718Z,-8.60
2022-12-12T22:22:02.953Z,-8.60
2022-12-12T22:24:31.078Z,-8.60
2022-12-12T22:26:59.195Z,-8.60
2022-12-12T22:29:27.489Z,-8.60
2022-12-12T22:32:03.066Z,-8.70
2022-12-12T22:34:31.384Z,-8.70
2022-12-12T22:36:59.518Z,-8.80
2022-12-12T22:39:29.277Z,-8.80
2022-12-12T22:41:58.119Z,-8.80
2022-12-12T22:44:27.511Z,-8.90
2022-12-12T22:46:57.346Z,-8.90
2022-12-12T22:49:27.734Z,-8.90
2022-12-12T22:51:56.860Z,-8.80
2022-12-12T22:54:25.779Z,-8.80
2022-12-12T22:56:54.868Z,-8.90
2022-12-12T22:59:22.938Z,-8.90
2022-12-12T23:01:50.998Z,-8.90
2022-12-12T23:04:20.605Z,-8.90
2022-12-12T23:06:48.729Z,-8.90
2022-12-12T23:09:23.128Z,-8.80
2022-12-12T23:11:51.170Z,-8.90
2022-12-12T23:14:22.797Z,-8.90
2022-12-12T23:16:51.638Z,-9.00
2022-12-12T23:19:26.073Z,-8.90
2022-12-12T23:21:54.311Z,-8.90
2022-12-12T23:24:22.428Z,-9.00
2022-12-12T23:26:52.422Z,-9.00
2022-12-12T23:29:21.304Z,-9.00
2022-12-12T23:31:50.057Z,-9.00
2022-12-12T23:34:23.473Z,-9.10
2022-12-12T23:36:52.347Z,-9.10
2022-12-12T23:39:20.706Z,-9.10
2022-12-12T23:41:49.340Z,-9.10
2022-12-12T23:44:19.952Z,-9.20
2022-12-12T23:46:48.520Z,-9.20
2022-12-12T23:49:18.998Z,-9.20
2022-12-12T23:51:49.955Z,-9.30
2022-12-12T23:54:20.158Z,-9.30
2022-12-12T23:56:49.120Z,-9.40
2022-12-12T23:59:18.603Z,-9.40
